• Join FlightAware (Why Join?)
  • Login
  • US Flag 
02:44AM EDT


 

Airport Tracker/Info


-or-


 

Live Flight TrackerFlight Track Log ✈ JBU9513 ✈ 15-May-2013 ✈ KJFK - KCHS

Flight Track Log - Related Links

Times and Time Zones

All times are in EDT time to prevent confusion due to time zone crossing. See the JBU9513 flight status page for this flight to view local times or setup timezone preferences in your user account.

Time Position Orientation Groundspeed Altitude Reporting Facility
EDT Latitude Longitude Course Direction KTS MPH feet Rate Location/Type
10:29AM 40.6470 -73.7650 360° North 149 171 600  Level FlightAware
10:29AM 40.6420 -73.7580 133° Southeast 143 165 1,200 2,700 Climbing FlightAware
10:30AM 40.6230 -73.7450 153° Southeast 171 197 2,400 1,980 Climbing FlightAware
10:30AM 40.6120 -73.7370 151° Southeast 200 230 2,700 1,560 Climbing FlightAware
10:30AM 40.6030 -73.7230 130° Southeast 237 273 3,200 2,520 Climbing FlightAware
10:31AM 40.5920 -73.6850 111° Southeast 275 316 4,400 3,480 Climbing FlightAware
10:31AM 40.5690 -73.6440 126° Southeast 275 316 6,400 4,140 Climbing FlightAware
10:31AM 40.5574 -73.6353 150° Southeast 277 319 7,100 3,600 Climbing FlightAware ADS-B
10:32AM 40.5394 -73.6221 151° Southeast 295 339 7,900 2,880 Climbing FlightAware ADS-B
10:32AM 40.5184 -73.6064 150° Southeast 306 352 8,700 3,180 Climbing FlightAware ADS-B
10:32AM 40.4989 -73.5917 150° Southeast 319 367 9,600 3,000 Climbing FlightAware ADS-B
10:33AM 40.4582 -73.5610 150° Southeast 344 396 11,000 2,340 Climbing FlightAware ADS-B
10:33AM 40.4101 -73.5252 150° Southeast 380 437 12,100 2,460 Climbing FlightAware ADS-B
10:34AM 40.3588 -73.4870 150° Southeast 396 456 13,700 2,880 Climbing FlightAware ADS-B
10:34AM 40.3419 -73.4763 154° Southeast 396 456 14,200 2,640 Climbing FlightAware ADS-B
10:34AM 40.3071 -73.4699 172° South 391 450 15,000 2,640 Climbing FlightAware ADS-B
10:34AM 40.2898 -73.4739 190° South 386 444 15,500 2,820 Climbing FlightAware ADS-B
10:35AM 40.2145 -73.4999 195° South 397 457 17,500 2,700 Climbing FlightAware ADS-B
10:35AM 40.1866 -73.5102 196° South 398 458 18,200 2,580 Climbing FlightAware ADS-B
10:36AM 40.1577 -73.5248 201° Southwest 397 457 18,900 2,460 Climbing FlightAware ADS-B
10:36AM 40.0897 -73.5656 205° Southwest 410 472 20,600 2,220 Climbing FlightAware ADS-B
10:37AM 40.0210 -73.6070 205° Southwest 421 484 21,900 1,980 Climbing FlightAware ADS-B
10:37AM 39.9665 -73.6446 208° Southwest 421 484 22,900 960 Climbing FlightAware ADS-B
10:38AM 39.9069 -73.6861 208° Southwest 421 484 23,000 120 Climbing FlightAware ADS-B
10:39AM 39.8523 -73.7232 208° Southwest 418 481 23,100 540 Climbing FlightAware ADS-B
10:39AM 39.7938 -73.7626 207° Southwest 426 490 23,600 780 Climbing FlightAware ADS-B
10:40AM 39.7382 -73.8027 209° Southwest 422 486 24,000 600 Climbing FlightAware ADS-B
10:40AM 39.7273 -73.8148 220° Southwest 414 476 24,000  Level FlightAware ADS-B
10:40AM 39.6888 -73.8718 229° Southwest 404 465 24,000  Level FlightAware ADS-B
10:41AM 39.6507 -73.9297 229° Southwest 402 463 24,000  Level FlightAware ADS-B
10:41AM 39.6112 -73.9900 230° Southwest 400 460 24,000 360 Level FlightAware ADS-B
10:42AM 39.5708 -74.0503 229° Southwest 400 460 24,400 1,200 Climbing FlightAware ADS-B
10:42AM 39.5321 -74.1082 229° Southwest 410 472 25,300 1,740 Climbing FlightAware ADS-B
10:43AM 39.4936 -74.1651 229° Southwest 414 476 26,200 1,800 Climbing FlightAware ADS-B
10:43AM 39.4536 -74.2181 226° Southwest 430 495 27,100 1,680 Climbing FlightAware ADS-B
10:44AM 39.4451 -74.2264 217° Southwest 435 501 27,200 1,560 Climbing FlightAware ADS-B
10:44AM 39.3910 -74.2760 215° Southwest 440 506 28,200 1,500 Climbing FlightAware
10:45AM 39.3230 -74.3380 215° Southwest 440 506 29,300 1,500 Climbing FlightAware
10:45AM 39.2786 -74.3778 215° Southwest 453 521 29,800 1,440 Climbing FlightAware ADS-B
10:46AM 39.2165 -74.4342 215° Southwest 460 529 30,600 1,140 Climbing FlightAware ADS-B
10:46AM 39.1624 -74.4829 215° Southwest 471 542 31,100 1,200 Climbing FlightAware ADS-B
10:47AM 39.1061 -74.5334 215° Southwest 472 543 31,900 1,680 Climbing FlightAware ADS-B
10:47AM 39.0496 -74.5841 215° Southwest 467 537 32,900 1,620 Climbing FlightAware ADS-B
10:48AM 38.9949 -74.6333 215° Southwest 471 542 33,600 1,620 Climbing FlightAware ADS-B
10:49AM 38.8856 -74.7315 215° Southwest 473 544 35,400 1,740 Climbing FlightAware ADS-B
10:49AM 38.8325 -74.7789 215° Southwest 457 526 36,300 1,440 Climbing FlightAware ADS-B
10:50AM 38.7800 -74.8260 215° Southwest 459 528 36,900 1,200 Climbing FlightAware ADS-B
10:51AM 38.7150 -74.8839 215° Southwest 456 525 37,700 720 Climbing FlightAware ADS-B
10:51AM 38.6309 -74.9585 215° Southwest 449 517 38,000 180 Climbing FlightAware ADS-B
10:52AM 38.5699 -75.0127 215° Southwest 449 517 38,000  Level FlightAware ADS-B
10:52AM 38.5182 -75.0587 215° Southwest 451 519 38,000  Level FlightAware ADS-B
10:53AM 38.4617 -75.1086 215° Southwest 453 521 38,000  Level FlightAware ADS-B
10:54AM 38.3880 -75.1735 215° Southwest 452 520 38,000  Level FlightAware ADS-B
10:54AM 38.3176 -75.2355 215° Southwest 452 520 38,000  Level FlightAware ADS-B
10:55AM 38.2190 -75.3220 215° Southwest 449 517 38,000  Level FlightAware
10:56AM 38.1573 -75.3759 214° Southwest 451 519 38,000  Level FlightAware ADS-B
10:56AM 38.1046 -75.4220 215° Southwest 452 520 38,000  Level FlightAware ADS-B
10:57AM 38.0486 -75.4697 214° Southwest 454 522 38,000  Level FlightAware ADS-B
10:58AM 37.9884 -75.5149 211° Southwest 454 522 38,000  Level FlightAware ADS-B
10:58AM 37.9420 -75.5500 211° Southwest 452 520 38,000  Level FlightAware
10:59AM 37.8462 -75.6230 211° Southwest 452 520 38,000  Level FlightAware ADS-B
11:00AM 37.7711 -75.6798 211° Southwest 453 521 38,000  Level FlightAware ADS-B
11:00AM 37.7115 -75.7246 211° Southwest 454 522 38,000  Level FlightAware ADS-B
11:01AM 37.6545 -75.7674 211° Southwest 456 525 38,000  Level FlightAware ADS-B
11:01AM 37.5911 -75.8150 211° Southwest 457 526 38,000  Level FlightAware ADS-B
11:01AM 37.5619 -75.8367 211° Southwest 458 527 38,000  Level FlightAware ADS-B
11:03AM 37.4430 -75.9240 210° Southwest 449 517 38,000  Level FlightAware
11:03AM 37.3660 -75.9870 213° Southwest 447 514 38,000  Level FlightAware
11:04AM 37.3345 -76.0133 214° Southwest 454 522 38,000  Level FlightAware ADS-B
11:04AM 37.2811 -76.0564 213° Southwest 453 521 38,000  Level FlightAware ADS-B
11:05AM 37.2271 -76.1002 213° Southwest 452 520 38,000  Level FlightAware ADS-B
11:05AM 37.1736 -76.1436 213° Southwest 452 520 38,000  Level FlightAware ADS-B
11:06AM 37.1202 -76.1868 213° Southwest 451 519 38,000  Level FlightAware ADS-B
11:06AM 37.0555 -76.2390 213° Southwest 450 518 38,000  Level FlightAware ADS-B
11:07AM 36.9994 -76.2842 213° Southwest 451 519 38,000  Level FlightAware ADS-B
11:07AM 36.9440 -76.3288 213° Southwest 452 520 38,000 -240 Level FlightAware ADS-B
11:08AM 36.8540 -76.4010 213° Southwest 448 516 37,700 -600 Descending FlightAware
11:09AM 36.7850 -76.4560 213° Southwest 450 518 37,100 -960 Descending FlightAware
11:10AM 36.7040 -76.5200 212° Southwest 452 520 36,400 -780 Descending FlightAware
11:10AM 36.6230 -76.5840 212° Southwest 451 519 36,000 -300 Descending FlightAware
11:11AM 36.5540 -76.6390 213° Southwest 448 516 36,000  Level FlightAware
11:12AM 36.5000 -76.6810 212° Southwest 448 516 36,000  Level FlightAware
11:12AM 36.4400 -76.7270 212° Southwest 448 516 36,000  Level FlightAware
11:13AM 36.3220 -76.8220 213° Southwest 446 513 36,000  Level FlightAware
11:14AM 36.2510 -76.8790 213° Southwest 446 513 36,000  Level FlightAware
11:15AM 36.1920 -76.9260 213° Southwest 446 513 36,000  Level FlightAware
11:15AM 36.1330 -76.9740 213° Southwest 446 513 36,000  Level FlightAware
11:16AM 36.0310 -77.0490 211° Southwest 36,000  Level FlightAware
11:17AM 35.9480 -77.1140 212° Southwest 442 509 36,000  Level FlightAware
11:17AM 35.8750 -77.1700 212° Southwest 444 511 36,000  Level FlightAware
11:18AM 35.8020 -77.2270 212° Southwest 443 510 36,000 -300 Level FlightAware
11:19AM 35.7450 -77.2710 212° Southwest 438 504 35,600 -900 Descending FlightAware
11:20AM 35.6480 -77.3460 212° Southwest 436 502 34,700 -960 Descending FlightAware
11:20AM 35.5790 -77.3990 212° Southwest 438 504 34,100 -540 Descending FlightAware
11:21AM 35.5130 -77.4500 212° Southwest 440 506 34,000 -120 Descending FlightAware
11:22AM 35.4520 -77.4960 212° Southwest 436 502 34,000  Level FlightAware
11:22AM 35.3820 -77.5500 212° Southwest 436 502 34,000  Level FlightAware
11:23AM 35.3240 -77.5940 212° Southwest 436 502 34,000  Level FlightAware
11:24AM 35.2510 -77.6500 212° Southwest 436 502 34,000  Level FlightAware
11:25AM 35.1930 -77.6940 212° Southwest 436 502 34,000  Level FlightAware
11:25AM 35.1350 -77.7390 212° Southwest 436 502 34,000  Level FlightAware
11:26AM 35.0770 -77.7830 212° Southwest 436 502 34,000  Level FlightAware
11:27AM 35.0190 -77.8280 212° Southwest 436 502 34,000  Level FlightAware
11:27AM 34.9460 -77.8830 212° Southwest 436 502 34,000  Level FlightAware
11:28AM 34.8880 -77.9270 212° Southwest 436 502 34,000  Level FlightAware
11:29AM 34.8300 -77.9720 212° Southwest 436 502 34,000  Level FlightAware
11:29AM 34.7710 -78.0160 211° Southwest 436 502 34,000 -900 Level FlightAware
11:30AM 34.6850 -78.2640 247° West 30,100 -1,020 Descending FlightAware
11:35AM 34.2120 -78.7550 221° Southwest 406 467 28,000 -360 Descending FlightAware
11:36AM 34.1390 -78.8380 223° Southwest 399 459 28,000 -360 Level FlightAware
11:37AM 34.0810 -78.9050 224° Southwest 389 448 27,500 -780 Descending FlightAware
11:38AM 34.0270 -78.9660 223° Southwest 388 447 26,900 -1,140 Descending FlightAware
11:38AM 33.9700 -79.0320 224° Southwest 384 442 25,900 -1,680 Descending FlightAware
11:39AM 33.9240 -79.0830 223° Southwest 379 436 24,700 -2,040 Descending FlightAware
11:40AM 33.8680 -79.1470 224° Southwest 374 430 23,200 -2,100 Descending FlightAware
11:40AM 33.8170 -79.2040 223° Southwest 370 426 21,800 -1,980 Descending FlightAware
11:41AM 33.7590 -79.2590 218° Southwest 366 421 20,400 -1,980 Descending FlightAware
11:42AM 33.6940 -79.3080 212° Southwest 360 414 18,900 -2,160 Descending FlightAware
11:43AM 33.6370 -79.3510 212° Southwest 360 414 17,400 -2,220 Descending FlightAware
11:43AM 33.5800 -79.3940 212° Southwest 357 411 16,000 -2,040 Descending FlightAware
11:44AM 33.5250 -79.4360 212° Southwest 352 405 14,700 -1,920 Descending FlightAware
11:45AM 33.4710 -79.4760 212° Southwest 346 398 13,500 -1,920 Descending FlightAware
11:45AM 33.4100 -79.5220 212° Southwest 338 389 12,000 -1,740 Descending FlightAware
11:46AM 33.3540 -79.5630 211° Southwest 323 372 10,900 -900 Descending FlightAware
11:47AM 33.3010 -79.6040 213° Southwest 321 369 10,800 -180 Descending FlightAware
11:47AM 33.2500 -79.6430 213° Southwest 317 365 10,700 -240 Descending FlightAware
11:48AM 33.2390 -79.6560 225° Southwest 309 356 10,600 -1,380 Descending FlightAware
11:48AM 33.2170 -79.6960 237° Southwest 288 331 9,800 -1,680 Descending FlightAware
11:49AM 33.1970 -79.7330 237° Southwest 264 304 9,100 -2,220 Descending FlightAware
11:49AM 33.1780 -79.7720 240° Southwest 277 319 7,600 -2,820 Descending FlightAware
11:49AM 33.1680 -79.7920 239° Southwest 273 314 7,000 -2,280 Descending FlightAware
11:50AM 33.1530 -79.8260 242° Southwest 267 307 6,100 -2,100 Descending FlightAware
11:50AM 33.1370 -79.8600 241° Southwest 260 299 5,100 -1,140 Descending FlightAware
11:51AM 33.1230 -79.8890 240° Southwest 260 299 5,100 -1,380 Level FlightAware
11:52AM 33.0867 -79.9647 240° Southwest 269 310 3,000 -1,260 Descending Jacksonville Center
11:53AM 33.0306 -79.9714 186° South 202 232 2,500 -600 Descending Jacksonville Center
11:54AM 32.9850 -79.9928 201° Southwest 196 226 1,800 -780 Descending Jacksonville Center
11:55AM 32.9519 -80.0111 205° Southwest 172 198 1,000 -840 Descending Jacksonville Center
11:57AM 32.8986 -80.0405 203° Southwest  Level Estimated
12:04PM 32.8986 -80.0405 203° Southwest  Level Estimated
12:05PM 32.8986 -80.0405 203° Southwest  Level Estimated